createdAt,value
2023-01-07T00:01:47.254Z,2.10
2023-01-07T00:04:16.812Z,2.28
2023-01-07T00:06:47.378Z,2.13
2023-01-07T00:09:17.515Z,2.06
2023-01-07T00:11:45.805Z,2.22
2023-01-07T00:14:15.151Z,2.29
2023-01-07T00:16:43.572Z,2.50
2023-01-07T00:19:14.055Z,2.55
2023-01-07T00:21:42.321Z,2.49
2023-01-07T00:24:12.669Z,2.56
2023-01-07T00:26:41.267Z,2.74
2023-01-07T00:29:09.904Z,2.69
2023-01-07T00:31:40.072Z,2.68
2023-01-07T00:34:09.323Z,2.82
2023-01-07T00:36:41.057Z,2.92
2023-01-07T00:39:13.209Z,2.96
2023-01-07T00:42:01.587Z,3.11
2023-01-07T00:44:29.613Z,3.22
2023-01-07T00:46:57.569Z,3.29
2023-01-07T00:49:25.538Z,3.40
2023-01-07T00:51:53.679Z,3.46
2023-01-07T00:54:22.948Z,3.62
2023-01-07T00:56:50.871Z,3.70
2023-01-07T00:59:18.856Z,3.61
2023-01-07T01:01:46.848Z,3.47
2023-01-07T01:04:14.903Z,3.45
2023-01-07T01:06:42.786Z,3.44
2023-01-07T01:09:10.683Z,3.40
2023-01-07T01:11:40.002Z,3.59
2023-01-07T01:14:07.921Z,3.69
2023-01-07T01:16:35.931Z,3.48
2023-01-07T01:19:03.859Z,3.52
2023-01-07T01:21:32.006Z,3.66
2023-01-07T01:23:59.917Z,3.57
2023-01-07T01:26:27.803Z,3.68
2023-01-07T01:28:57.524Z,3.84
2023-01-07T01:31:25.609Z,3.81
2023-01-07T01:33:55.199Z,3.83
2023-01-07T01:36:23.134Z,3.93
2023-01-07T01:38:51.065Z,3.83
2023-01-07T01:41:18.997Z,4.08
2023-01-07T01:43:47.479Z,3.94
2023-01-07T01:46:19.390Z,4.18
2023-01-07T01:48:49.914Z,4.01
2023-01-07T01:51:20.452Z,3.93
2023-01-07T01:53:48.514Z,3.97
2023-01-07T01:56:20.391Z,4.03
2023-01-07T01:58:50.603Z,3.89
2023-01-07T02:01:20.056Z,3.97
2023-01-07T02:03:49.142Z,4.27
2023-01-07T02:06:22.516Z,4.30
2023-01-07T02:08:50.439Z,4.34
2023-01-07T02:11:27.842Z,4.33
2023-01-07T02:14:08.662Z,4.19
2023-01-07T02:16:44.800Z,4.19
2023-01-07T02:19:45.424Z,4.27
2023-01-07T02:22:22.912Z,4.12
2023-01-07T02:25:05.420Z,4.35
2023-01-07T02:27:43.831Z,4.41
2023-01-07T02:30:42.975Z,4.37
2023-01-07T02:33:37.406Z,4.23
2023-01-07T02:36:19.518Z,4.45
2023-01-07T02:38:57.713Z,4.67
2023-01-07T02:41:35.461Z,4.53
2023-01-07T02:44:05.230Z,4.33
2023-01-07T02:46:38.643Z,4.34
2023-01-07T02:49:09.691Z,4.48
2023-01-07T02:51:39.640Z,4.50
2023-01-07T02:54:10.302Z,4.41
2023-01-07T02:56:49.857Z,4.59
2023-01-07T02:59:34.670Z,4.69
2023-01-07T03:02:17.082Z,4.82
2023-01-07T03:04:59.170Z,4.79
2023-01-07T03:07:34.949Z,4.72
2023-01-07T03:10:05.695Z,4.62
2023-01-07T03:12:36.181Z,4.60
2023-01-07T03:15:11.048Z,4.57
2023-01-07T03:17:42.443Z,4.53
2023-01-07T03:20:13.175Z,4.47
2023-01-07T03:22:42.559Z,4.60
2023-01-07T03:25:10.825Z,4.70
2023-01-07T03:27:38.989Z,4.77
2023-01-07T03:30:11.487Z,4.79
2023-01-07T03:32:40.772Z,4.85
2023-01-07T03:35:09.452Z,4.76
2023-01-07T03:37:39.878Z,4.98
2023-01-07T03:40:10.751Z,5.13
2023-01-07T03:42:40.011Z,5.02
2023-01-07T03:45:10.732Z,4.79
2023-01-07T03:47:40.947Z,4.71
2023-01-07T03:50:09.715Z,4.74
2023-01-07T03:52:38.989Z,4.77
2023-01-07T03:55:07.413Z,4.81
2023-01-07T03:57:35.583Z,4.84
2023-01-07T04:00:04.303Z,4.74
2023-01-07T04:02:32.259Z,4.83
2023-01-07T04:05:00.177Z,4.94
2023-01-07T04:07:28.066Z,4.83
2023-01-07T04:09:57.324Z,4.69
2023-01-07T04:12:25.216Z,4.66
2023-01-07T04:14:53.315Z,4.75
2023-01-07T04:17:21.212Z,4.69
2023-01-07T04:19:49.090Z,4.78
2023-01-07T04:22:17.013Z,4.80
2023-01-07T04:24:44.902Z,4.81
2023-01-07T04:27:14.250Z,4.89
2023-01-07T04:29:42.135Z,5.12
2023-01-07T04:32:10.070Z,5.17
2023-01-07T04:34:37.946Z,5.13
2023-01-07T04:37:05.870Z,4.83
2023-01-07T04:39:33.729Z,4.94
2023-01-07T04:42:01.593Z,5.03
2023-01-07T04:44:30.841Z,5.06
2023-01-07T04:46:58.742Z,5.08
2023-01-07T04:49:26.648Z,5.03
2023-01-07T04:51:54.572Z,4.95
2023-01-07T04:54:22.455Z,5.06
2023-01-07T04:56:50.847Z,4.95
2023-01-07T04:59:18.755Z,4.97
2023-01-07T05:01:48.146Z,5.03
2023-01-07T05:04:16.275Z,5.03
2023-01-07T05:06:44.171Z,5.14
2023-01-07T05:09:12.424Z,5.12
2023-01-07T05:11:40.404Z,5.00
2023-01-07T05:14:08.293Z,5.02
2023-01-07T05:16:36.228Z,5.07
2023-01-07T05:19:05.534Z,5.18
2023-01-07T05:21:33.432Z,5.47
2023-01-07T05:24:01.340Z,5.28
2023-01-07T05:26:29.232Z,5.08
2023-01-07T05:28:57.093Z,5.04
2023-01-07T05:31:25.000Z,5.07
2023-01-07T05:33:52.917Z,5.20
2023-01-07T05:36:22.190Z,5.25
2023-01-07T05:38:50.095Z,5.32
2023-01-07T05:41:17.974Z,5.53
2023-01-07T05:43:45.875Z,5.34
2023-01-07T05:46:13.805Z,5.16
2023-01-07T05:48:41.713Z,5.36
2023-01-07T05:51:09.655Z,5.19
2023-01-07T05:53:39.119Z,5.15
2023-01-07T05:56:07.325Z,5.08
2023-01-07T05:58:35.257Z,5.12
2023-01-07T06:01:03.357Z,5.11
2023-01-07T06:03:31.429Z,5.02
2023-01-07T06:05:59.494Z,5.11
2023-01-07T06:08:27.379Z,5.22
2023-01-07T06:10:56.664Z,5.24
2023-01-07T06:13:24.577Z,5.19
2023-01-07T06:15:52.577Z,5.57
2023-01-07T06:18:20.500Z,5.34
2023-01-07T06:20:48.387Z,5.23
2023-01-07T06:23:16.270Z,5.39
2023-01-07T06:25:44.145Z,5.39
2023-01-07T06:28:13.442Z,5.39
2023-01-07T06:30:41.359Z,5.51
2023-01-07T06:33:09.300Z,5.34
2023-01-07T06:35:37.187Z,5.15
2023-01-07T06:38:05.076Z,5.24
2023-01-07T06:40:33.270Z,5.19
2023-01-07T06:43:01.199Z,5.40
2023-01-07T06:45:30.510Z,5.50
2023-01-07T06:47:58.544Z,5.27
2023-01-07T06:50:26.893Z,5.23
2023-01-07T06:52:54.828Z,5.37
2023-01-07T06:55:22.716Z,5.54
2023-01-07T06:57:50.609Z,5.59
2023-01-07T07:00:18.831Z,5.51
2023-01-07T07:02:48.135Z,5.47
2023-01-07T07:05:16.483Z,5.47
2023-01-07T07:07:44.506Z,5.33
2023-01-07T07:10:12.542Z,5.24
2023-01-07T07:12:40.792Z,5.21
2023-01-07T07:15:10.230Z,5.22
2023-01-07T07:17:38.141Z,5.52
2023-01-07T07:20:08.784Z,5.52
2023-01-07T07:22:36.703Z,5.55
2023-01-07T07:25:05.106Z,5.49
2023-01-07T07:27:33.084Z,5.58
2023-01-07T07:30:00.982Z,5.49
2023-01-07T07:32:28.927Z,5.60
2023-01-07T07:34:57.493Z,5.55
2023-01-07T07:37:26.741Z,5.63
2023-01-07T07:39:54.616Z,5.70
2023-01-07T07:42:22.541Z,5.77
2023-01-07T07:44:51.026Z,5.86
2023-01-07T07:47:19.660Z,5.71
2023-01-07T07:49:47.795Z,5.91
2023-01-07T07:52:15.734Z,5.84
2023-01-07T07:54:45.020Z,6.06
2023-01-07T07:57:12.953Z,6.12
2023-01-07T07:59:40.816Z,6.15
2023-01-07T08:02:10.366Z,6.15
2023-01-07T08:04:38.287Z,6.15
2023-01-07T08:07:06.265Z,6.18
2023-01-07T08:09:34.383Z,6.14
2023-01-07T08:12:03.623Z,6.49
2023-01-07T08:14:31.603Z,6.39
2023-01-07T08:16:59.516Z,6.46
2023-01-07T08:19:27.533Z,6.43
2023-01-07T08:21:55.499Z,6.57
2023-01-07T08:24:23.490Z,6.48
2023-01-07T08:26:55.451Z,6.34
2023-01-07T08:29:24.896Z,6.30
2023-01-07T08:31:53.327Z,6.55
2023-01-07T08:34:21.220Z,6.68
2023-01-07T08:36:49.121Z,7.01
2023-01-07T08:39:17.056Z,7.68
2023-01-07T08:41:44.939Z,8.29
2023-01-07T08:44:12.838Z,8.67
2023-01-07T08:46:42.966Z,9.13
2023-01-07T08:49:10.974Z,9.33
2023-01-07T08:51:38.846Z,9.34
2023-01-07T08:54:06.857Z,9.39
2023-01-07T08:56:34.773Z,9.16
2023-01-07T08:59:02.704Z,9.06
2023-01-07T09:01:30.771Z,8.87
2023-01-07T09:04:00.126Z,8.86
2023-01-07T09:06:28.085Z,8.74
2023-01-07T09:08:55.964Z,8.92
2023-01-07T09:11:23.929Z,9.03
2023-01-07T09:13:51.858Z,9.16
2023-01-07T09:16:20.091Z,8.84
2023-01-07T09:18:47.991Z,8.74
2023-01-07T09:21:17.371Z,8.87
2023-01-07T09:23:45.296Z,8.89
2023-01-07T09:26:13.185Z,8.91
2023-01-07T09:28:41.121Z,8.99
2023-01-07T09:31:09.141Z,9.10
2023-01-07T09:33:37.052Z,9.10
2023-01-07T09:36:05.772Z,9.09
2023-01-07T09:38:35.088Z,9.05
2023-01-07T09:41:03.035Z,9.33
2023-01-07T09:44:00.388Z,9.14
2023-01-07T09:46:23.979Z,9.09
2023-01-07T09:48:56.458Z,9.31
2023-01-07T09:51:27.381Z,9.55
2023-01-07T09:53:58.897Z,9.44
2023-01-07T09:56:29.021Z,9.68
2023-01-07T09:58:58.213Z,9.81
2023-01-07T10:01:30.735Z,9.72
2023-01-07T10:04:06.736Z,9.92
2023-01-07T10:06:43.745Z,10.16
2023-01-07T10:09:22.241Z,10.26
2023-01-07T10:12:00.525Z,10.15
2023-01-07T10:14:45.018Z,10.31
2023-01-07T10:17:22.126Z,10.35
2023-01-07T10:19:55.740Z,10.40
2023-01-07T10:22:26.739Z,10.28
2023-01-07T10:24:59.058Z,10.27
2023-01-07T10:27:31.490Z,10.08
2023-01-07T10:30:03.882Z,10.20
2023-01-07T10:32:34.322Z,10.12
2023-01-07T10:35:02.696Z,10.04
2023-01-07T10:37:32.334Z,10.27
2023-01-07T10:40:09.184Z,10.35
2023-01-07T10:42:40.525Z,10.37
2023-01-07T10:45:24.446Z,10.45
2023-01-07T10:48:05.632Z,10.37
2023-01-07T10:50:49.897Z,10.44
2023-01-07T10:53:25.645Z,10.58
2023-01-07T10:56:01.155Z,10.21
2023-01-07T10:58:33.912Z,10.10
2023-01-07T11:01:02.033Z,9.84
2023-01-07T11:03:30.205Z,10.03
2023-01-07T11:06:01.259Z,10.41
2023-01-07T11:08:33.945Z,10.49
2023-01-07T11:11:04.937Z,10.52
2023-01-07T11:13:35.440Z,10.60
2023-01-07T11:16:08.183Z,10.49
2023-01-07T11:18:40.907Z,10.24
2023-01-07T11:21:08.809Z,10.42
2023-01-07T11:23:56.695Z,10.34
2023-01-07T11:26:27.053Z,10.43
2023-01-07T11:28:56.146Z,10.48
2023-01-07T11:31:30.664Z,10.48
2023-01-07T11:34:02.865Z,10.50
2023-01-07T11:36:42.013Z,10.59
2023-01-07T11:39:11.261Z,10.53
2023-01-07T11:41:52.984Z,10.79
2023-01-07T11:44:20.899Z,10.52
2023-01-07T11:46:49.420Z,10.79
2023-01-07T11:49:24.089Z,10.54
2023-01-07T11:51:52.353Z,10.52
2023-01-07T11:54:22.620Z,10.48
2023-01-07T11:56:54.195Z,10.65
2023-01-07T11:59:30.603Z,10.58
2023-01-07T12:02:00.404Z,10.51
2023-01-07T12:04:30.260Z,10.33
2023-01-07T12:07:00.015Z,10.49
2023-01-07T12:09:38.870Z,10.54
2023-01-07T12:12:27.945Z,10.54
2023-01-07T12:14:56.228Z,10.61
2023-01-07T12:17:25.718Z,10.64
2023-01-07T12:20:21.091Z,10.80
2023-01-07T12:22:58.828Z,10.50
2023-01-07T12:25:41.727Z,10.47
2023-01-07T12:28:13.756Z,10.27
2023-01-07T12:31:06.876Z,10.38
2023-01-07T12:33:44.854Z,10.33
2023-01-07T12:36:14.839Z,10.18
2023-01-07T12:38:45.897Z,10.28
2023-01-07T12:41:19.769Z,10.07
2023-01-07T12:43:58.276Z,10.06
2023-01-07T12:46:28.474Z,10.23
2023-01-07T12:49:04.890Z,10.07
2023-01-07T12:51:37.733Z,10.19
2023-01-07T12:54:10.866Z,10.18
2023-01-07T12:56:43.309Z,10.04
2023-01-07T12:59:46.040Z,10.11
2023-01-07T13:02:16.898Z,10.02
2023-01-07T13:04:51.096Z,10.20
2023-01-07T13:07:23.803Z,10.14
2023-01-07T13:09:54.746Z,10.03
2023-01-07T13:12:47.656Z,10.16
2023-01-07T13:15:26.951Z,9.88
2023-01-07T13:17:56.450Z,10.10
2023-01-07T13:20:36.455Z,9.99
2023-01-07T13:23:05.835Z,9.93
2023-01-07T13:25:44.994Z,9.92
2023-01-07T13:28:35.820Z,10.00
2023-01-07T13:31:26.972Z,9.77
2023-01-07T13:34:00.652Z,9.82
2023-01-07T13:36:35.950Z,9.83
2023-01-07T13:39:17.729Z,9.82
2023-01-07T13:41:55.017Z,9.71
2023-01-07T13:44:40.988Z,9.73
2023-01-07T13:47:12.447Z,9.56
2023-01-07T13:49:40.452Z,9.39
2023-01-07T13:52:26.708Z,9.47
2023-01-07T13:54:59.631Z,9.42
2023-01-07T13:57:44.883Z,9.41
2023-01-07T14:00:38.084Z,9.34
2023-01-07T14:03:35.360Z,9.35
2023-01-07T14:06:43.052Z,9.19
2023-01-07T14:09:32.348Z,9.14
2023-01-07T14:12:32.991Z,9.07
2023-01-07T14:15:38.134Z,8.98
2023-01-07T14:18:27.570Z,8.87
2023-01-07T14:21:02.488Z,8.82
2023-01-07T14:23:35.649Z,8.80
2023-01-07T14:26:14.455Z,8.89
2023-01-07T14:29:01.251Z,8.78
2023-01-07T14:31:30.325Z,8.65
2023-01-07T14:34:02.020Z,8.48
2023-01-07T14:37:15.010Z,8.37
2023-01-07T14:39:44.731Z,8.17
2023-01-07T14:42:49.229Z,8.00
2023-01-07T14:45:52.969Z,7.87
2023-01-07T14:48:38.605Z,7.75
2023-01-07T14:51:34.438Z,7.73
2023-01-07T14:54:15.186Z,7.68
2023-01-07T14:56:52.893Z,7.56
2023-01-07T14:59:43.198Z,7.43
2023-01-07T15:02:44.508Z,7.35
2023-01-07T15:05:37.356Z,7.21
2023-01-07T15:08:26.311Z,7.16
2023-01-07T15:11:12.136Z,7.42
2023-01-07T15:14:02.474Z,7.25
2023-01-07T15:16:31.897Z,7.04
2023-01-07T15:19:00.303Z,6.90
2023-01-07T15:21:34.679Z,6.77
2023-01-07T15:24:09.047Z,6.72
2023-01-07T15:26:41.265Z,6.68
2023-01-07T15:29:17.252Z,6.73
2023-01-07T15:31:50.437Z,6.54
2023-01-07T15:34:19.097Z,6.56
2023-01-07T15:36:48.415Z,6.47
2023-01-07T15:39:21.258Z,6.61
2023-01-07T15:41:52.061Z,6.29
2023-01-07T15:44:23.017Z,6.27
2023-01-07T15:46:50.997Z,6.35
2023-01-07T15:49:26.085Z,6.25
2023-01-07T15:51:56.684Z,6.30
2023-01-07T15:54:37.521Z,5.86
2023-01-07T15:57:11.202Z,5.73
2023-01-07T15:59:43.825Z,5.74
2023-01-07T16:02:21.994Z,5.66
2023-01-07T16:04:52.325Z,5.48
2023-01-07T16:07:24.549Z,5.52
2023-01-07T16:09:54.134Z,5.51
2023-01-07T16:12:29.916Z,5.43
2023-01-07T16:14:57.888Z,5.30
2023-01-07T16:17:27.287Z,4.94
2023-01-07T16:20:11.291Z,4.82
2023-01-07T16:22:42.159Z,4.89
2023-01-07T16:25:17.969Z,4.75
2023-01-07T16:27:46.213Z,4.66
2023-01-07T16:30:15.900Z,4.74
2023-01-07T16:32:44.284Z,4.61
2023-01-07T16:35:18.535Z,4.67
2023-01-07T16:37:46.781Z,4.53
2023-01-07T16:40:34.997Z,4.34
2023-01-07T16:43:03.174Z,4.27
2023-01-07T16:45:32.500Z,4.21
2023-01-07T16:48:19.438Z,3.97
2023-01-07T16:50:48.089Z,3.80
2023-01-07T16:53:27.362Z,3.78
2023-01-07T16:56:12.865Z,3.61
2023-01-07T16:58:42.738Z,3.46
2023-01-07T17:01:11.485Z,3.32
2023-01-07T17:03:47.920Z,3.49
2023-01-07T17:06:16.484Z,3.25
2023-01-07T17:08:49.411Z,3.31
2023-01-07T17:11:23.817Z,3.17
2023-01-07T17:13:51.759Z,3.39
2023-01-07T17:16:25.421Z,3.27
2023-01-07T17:18:53.813Z,3.05
2023-01-07T17:21:34.647Z,2.88
2023-01-07T17:24:02.597Z,2.89
2023-01-07T17:26:40.494Z,2.59
2023-01-07T17:29:13.111Z,2.49
2023-01-07T17:31:41.425Z,2.38
2023-01-07T17:34:11.426Z,2.69
2023-01-07T17:36:39.611Z,2.52
2023-01-07T17:39:07.497Z,2.29
2023-01-07T17:41:55.392Z,2.06
2023-01-07T17:44:23.313Z,1.95
2023-01-07T17:46:51.219Z,1.96
2023-01-07T17:49:20.393Z,1.91
2023-01-07T17:51:49.457Z,1.85
2023-01-07T17:54:20.172Z,1.93
2023-01-07T17:56:49.796Z,1.81
2023-01-07T17:59:19.071Z,1.67
2023-01-07T18:01:47.276Z,1.60
2023-01-07T18:04:15.333Z,1.69
2023-01-07T18:06:44.177Z,1.73
2023-01-07T18:09:13.637Z,1.50
2023-01-07T18:12:00.783Z,1.47
2023-01-07T18:14:30.197Z,1.51
2023-01-07T18:16:58.168Z,1.38
2023-01-07T18:19:26.051Z,1.25
2023-01-07T18:21:55.115Z,1.25
2023-01-07T18:24:23.079Z,1.26
2023-01-07T18:26:50.997Z,1.25
2023-01-07T18:29:18.919Z,1.15
2023-01-07T18:31:48.304Z,1.15
2023-01-07T18:34:16.639Z,1.23
2023-01-07T18:36:44.560Z,1.17
2023-01-07T18:39:19.014Z,1.01
2023-01-07T18:41:50.026Z,1.20
2023-01-07T18:44:18.377Z,1.02
2023-01-07T18:46:46.357Z,0.97
2023-01-07T18:49:15.974Z,1.37
2023-01-07T18:51:43.941Z,1.11
2023-01-07T18:54:11.843Z,0.98
2023-01-07T18:56:39.743Z,1.02
2023-01-07T18:59:07.737Z,0.98
2023-01-07T19:01:35.704Z,1.10
2023-01-07T19:04:05.158Z,0.95
2023-01-07T19:06:34.454Z,0.85
2023-01-07T19:09:02.376Z,0.80
2023-01-07T19:11:31.460Z,0.56
2023-01-07T19:13:59.367Z,0.51
2023-01-07T19:16:27.352Z,0.46
2023-01-07T19:18:55.295Z,0.55
2023-01-07T19:21:23.953Z,0.56
2023-01-07T19:23:53.365Z,0.56
2023-01-07T19:26:21.971Z,0.54
2023-01-07T19:28:49.882Z,0.46
2023-01-07T19:31:17.785Z,0.49
2023-01-07T19:33:45.738Z,0.76
2023-01-07T19:36:15.367Z,0.87
2023-01-07T19:38:46.354Z,0.89
2023-01-07T19:41:17.960Z,0.82
2023-01-07T19:43:46.448Z,0.87
2023-01-07T19:46:15.766Z,0.92
2023-01-07T19:48:43.772Z,0.82
2023-01-07T19:51:12.055Z,0.53
2023-01-07T19:53:40.712Z,0.39
2023-01-07T19:56:10.193Z,0.26
2023-01-07T19:58:41.823Z,0.41
2023-01-07T20:01:12.316Z,0.31
2023-01-07T20:03:40.466Z,0.31
2023-01-07T20:06:10.481Z,0.22
2023-01-07T20:08:38.742Z,0.11
2023-01-07T20:11:07.417Z,0.11
2023-01-07T20:13:36.877Z,0.21
2023-01-07T20:16:07.291Z,0.34
2023-01-07T20:18:38.224Z,0.37
2023-01-07T20:21:06.585Z,0.44
2023-01-07T20:23:35.647Z,0.30
2023-01-07T20:26:04.780Z,0.38
2023-01-07T20:28:32.670Z,0.20
2023-01-07T20:31:00.701Z,0.05
2023-01-07T20:33:29.957Z,-0.02
2023-01-07T20:36:01.527Z,-0.09
2023-01-07T20:38:29.525Z,0.20
2023-01-07T20:40:57.476Z,-0.08
2023-01-07T20:43:25.859Z,-0.12
2023-01-07T20:45:54.032Z,-0.26
2023-01-07T20:48:21.936Z,-0.26
2023-01-07T20:50:51.247Z,-0.20
2023-01-07T20:53:19.146Z,-0.27
2023-01-07T20:55:47.087Z,-0.26
2023-01-07T20:58:15.055Z,-0.29
2023-01-07T21:00:42.965Z,-0.31
2023-01-07T21:03:10.954Z,-0.35
2023-01-07T21:05:38.976Z,-0.45
2023-01-07T21:08:08.425Z,-0.47
2023-01-07T21:10:38.317Z,-0.48
2023-01-07T21:13:06.524Z,-0.54
2023-01-07T21:15:36.348Z,-0.60
2023-01-07T21:18:04.513Z,-0.56
2023-01-07T21:20:32.421Z,-0.60
2023-01-07T21:23:00.379Z,-0.54
2023-01-07T21:25:29.676Z,-0.55
2023-01-07T21:27:57.594Z,-0.55
2023-01-07T21:30:28.140Z,-0.46
2023-01-07T21:32:56.480Z,-0.65
2023-01-07T21:35:24.397Z,-0.55
2023-01-07T21:37:53.531Z,-0.50
2023-01-07T21:40:21.980Z,-0.55
2023-01-07T21:42:51.373Z,-0.35
2023-01-07T21:45:19.288Z,-0.55
2023-01-07T21:47:47.208Z,-0.73
2023-01-07T21:50:16.706Z,-0.84
2023-01-07T21:52:44.687Z,-0.76
2023-01-07T21:55:12.620Z,-0.76
2023-01-07T21:57:40.718Z,-0.88
2023-01-07T22:00:11.196Z,-0.96
2023-01-07T22:02:39.170Z,-0.95
2023-01-07T22:05:08.210Z,-0.88
2023-01-07T22:07:36.153Z,-0.87
2023-01-07T22:10:04.290Z,-0.86
2023-01-07T22:12:32.190Z,-0.73
2023-01-07T22:15:00.123Z,-0.74
2023-01-07T22:17:29.450Z,-0.49
2023-01-07T22:19:57.387Z,-0.50
2023-01-07T22:22:25.322Z,-0.61
2023-01-07T22:24:53.215Z,-0.68
2023-01-07T22:27:21.160Z,-0.75
2023-01-07T22:29:49.085Z,-0.90
2023-01-07T22:32:16.960Z,-1.01
2023-01-07T22:34:46.287Z,-1.03
2023-01-07T22:37:16.618Z,-1.03
2023-01-07T22:39:47.347Z,-0.86
2023-01-07T22:42:18.204Z,-0.93
2023-01-07T22:44:49.150Z,-1.07
2023-01-07T22:47:19.269Z,-1.05
2023-01-07T22:49:49.015Z,-0.77
2023-01-07T22:52:16.950Z,-0.85
2023-01-07T22:54:45.126Z,-0.91
2023-01-07T22:57:13.585Z,-1.08
2023-01-07T22:59:41.939Z,-1.28
2023-01-07T23:02:09.889Z,-1.32
2023-01-07T23:04:37.842Z,-1.30
2023-01-07T23:07:07.156Z,-1.27
2023-01-07T23:09:35.107Z,-1.02
2023-01-07T23:12:03.782Z,-0.82
2023-01-07T23:14:32.538Z,-0.98
2023-01-07T23:17:00.431Z,-1.20
2023-01-07T23:19:29.923Z,-1.40
2023-01-07T23:21:58.747Z,-1.55
2023-01-07T23:24:28.054Z,-1.58
2023-01-07T23:26:57.224Z,-1.39
2023-01-07T23:29:25.243Z,-1.28
2023-01-07T23:31:53.233Z,-1.20
2023-01-07T23:34:21.209Z,-1.02
2023-01-07T23:36:49.121Z,-1.10
2023-01-07T23:39:17.402Z,-1.34
2023-01-07T23:41:46.823Z,-1.47
2023-01-07T23:44:14.872Z,-1.29
2023-01-07T23:46:42.775Z,-1.07
2023-01-07T23:49:10.693Z,-1.12
2023-01-07T23:51:38.616Z,-1.23
2023-01-07T23:54:06.681Z,-1.30
2023-01-07T23:56:34.727Z,-1.39
2023-01-07T23:59:03.994Z,-1.31
